KMCC

Mc Clellan Airfield Airport

Sacramento, California, USA
METAR KMCC 101535Z AUTO 33004KT 1SM BR OVC004 08/08 A3026 RMK AO2
Observed Flight Rules
Dec-10 @ 15:35 UTC (43 minutes ago) Instrument Flight Rules
Wind Visibility Clouds Conditions
330° at 4 knots 1 miles
  • Overcast at 400' AGL
  • Mist
Temperatures Readings
Current 8°C / 46°F
Dewpoint 8°C / 46°F
Humidity 100%
Altimeter 30.26" Hg
Pressure 1025 hPa
Elevation 23
METAR KMCC 101535Z AUTO 33004KT 1SM BR OVC004 08/08 A3026 RMK AO2
Observed Flight Rules
Dec-10 @ 15:35 UTC
(43 minutes ago)
LIFR
Wind Visibility
330° at 4 knots 1 miles
Clouds
  • Overcast at 400' AGL
Conditions
  • Mist
Temperature Dewpoint
8°C / 46°F 8°C / 46°F
Humidity Altimeter Pressure
100% 30.26" Hg 1025 hPa